sensor_id;sensor_type;location;lat;lon;timestamp;temperature;humidity
69418;DHT22;56610;48.872;2.400;2023-07-30T00:00:39;20.60;99.90
69418;DHT22;56610;48.872;2.400;2023-07-30T00:03:04;20.50;99.90
69418;DHT22;56610;48.872;2.400;2023-07-30T00:05:30;20.60;99.90
69418;DHT22;56610;48.872;2.400;2023-07-30T00:07:55;20.60;99.90
69418;DHT22;56610;48.872;2.400;2023-07-30T00:10:21;20.50;99.90
69418;DHT22;56610;48.872;2.400;2023-07-30T00:12:47;20.50;99.90
69418;DHT22;56610;48.872;2.400;2023-07-30T00:15:13;20.50;99.90
69418;DHT22;56610;48.872;2.400;2023-07-30T00:17:39;20.60;99.90
69418;DHT22;56610;48.872;2.400;2023-07-30T00:20:06;20.60;99.90
69418;DHT22;56610;48.872;2.400;2023-07-30T00:22:32;20.40;99.90
69418;DHT22;56610;48.872;2.400;2023-07-30T00:24:57;20.40;99.90
69418;DHT22;56610;48.872;2.400;2023-07-30T00:27:23;20.30;99.90
69418;DHT22;56610;48.872;2.400;2023-07-30T00:29:49;20.20;99.90
69418;DHT22;56610;48.872;2.400;2023-07-30T00:32:14;20.20;99.90
69418;DHT22;56610;48.872;2.400;2023-07-30T00:34:41;20.30;99.90
69418;DHT22;56610;48.872;2.400;2023-07-30T00:37:07;20.30;99.90
69418;DHT22;56610;48.872;2.400;2023-07-30T00:39:33;20.40;99.90
69418;DHT22;56610;48.872;2.400;2023-07-30T00:41:58;20.40;99.90
69418;DHT22;56610;48.872;2.400;2023-07-30T00:44:24;20.40;99.90
69418;DHT22;56610;48.872;2.400;2023-07-30T00:46:49;20.30;99.90
69418;DHT22;56610;48.872;2.400;2023-07-30T00:49:15;20.20;99.90
69418;DHT22;56610;48.872;2.400;2023-07-30T00:51:41;20.30;99.90
69418;DHT22;56610;48.872;2.400;2023-07-30T00:54:07;20.30;99.90
69418;DHT22;56610;48.872;2.400;2023-07-30T00:56:33;20.30;99.90
69418;DHT22;56610;48.872;2.400;2023-07-30T00:58:59;20.30;99.90
69418;DHT22;56610;48.872;2.400;2023-07-30T01:01:25;20.30;99.90
69418;DHT22;56610;48.872;2.400;2023-07-30T01:03:51;20.20;99.90
69418;DHT22;56610;48.872;2.400;2023-07-30T01:06:17;20.30;99.90
69418;DHT22;56610;48.872;2.400;2023-07-30T01:08:43;20.30;99.90
69418;DHT22;56610;48.872;2.400;2023-07-30T01:11:09;20.20;99.90
69418;DHT22;56610;48.872;2.400;2023-07-30T01:13:35;20.30;99.90
69418;DHT22;56610;48.872;2.400;2023-07-30T01:16:01;20.30;99.90
69418;DHT22;56610;48.872;2.400;2023-07-30T01:18:28;20.20;99.90
69418;DHT22;56610;48.872;2.400;2023-07-30T01:20:57;20.20;99.90
69418;DHT22;56610;48.872;2.400;2023-07-30T01:23:24;20.20;99.90
69418;DHT22;56610;48.872;2.400;2023-07-30T01:26:07;20.20;99.90
69418;DHT22;56610;48.872;2.400;2023-07-30T01:28:47;20.10;99.90
69418;DHT22;56610;48.872;2.400;2023-07-30T01:31:16;20.00;99.90
69418;DHT22;56610;48.872;2.400;2023-07-30T01:33:42;20.00;99.90
69418;DHT22;56610;48.872;2.400;2023-07-30T01:36:11;20.10;99.90
69418;DHT22;56610;48.872;2.400;2023-07-30T01:38:39;20.10;99.90
69418;DHT22;56610;48.872;2.400;2023-07-30T01:41:05;20.10;99.90
69418;DHT22;56610;48.872;2.400;2023-07-30T01:43:31;20.10;99.90
69418;DHT22;56610;48.872;2.400;2023-07-30T01:45:56;20.10;99.90
69418;DHT22;56610;48.872;2.400;2023-07-30T01:48:22;20.00;99.90
69418;DHT22;56610;48.872;2.400;2023-07-30T01:50:47;20.10;99.90
69418;DHT22;56610;48.872;2.400;2023-07-30T01:53:14;20.10;99.90
69418;DHT22;56610;48.872;2.400;2023-07-30T01:55:39;20.20;99.90
69418;DHT22;56610;48.872;2.400;2023-07-30T01:58:09;20.30;99.90
69418;DHT22;56610;48.872;2.400;2023-07-30T02:00:35;20.20;99.90
69418;DHT22;56610;48.872;2.400;2023-07-30T02:03:01;20.30;99.90
69418;DHT22;56610;48.872;2.400;2023-07-30T02:05:26;20.20;99.90
69418;DHT22;56610;48.872;2.400;2023-07-30T02:07:52;20.20;99.90
69418;DHT22;56610;48.872;2.400;2023-07-30T02:10:17;20.10;99.90
69418;DHT22;56610;48.872;2.400;2023-07-30T02:12:43;20.10;99.90
69418;DHT22;56610;48.872;2.400;2023-07-30T02:15:08;20.10;99.90
69418;DHT22;56610;48.872;2.400;2023-07-30T02:17:34;20.10;99.90
69418;DHT22;56610;48.872;2.400;2023-07-30T02:20:00;20.10;99.90
69418;DHT22;56610;48.872;2.400;2023-07-30T02:22:25;20.00;99.90
69418;DHT22;56610;48.872;2.400;2023-07-30T02:24:51;20.10;99.90
69418;DHT22;56610;48.872;2.400;2023-07-30T02:27:16;20.20;99.90
69418;DHT22;56610;48.872;2.400;2023-07-30T02:29:42;20.20;99.90
69418;DHT22;56610;48.872;2.400;2023-07-30T02:32:08;20.10;99.90
69418;DHT22;56610;48.872;2.400;2023-07-30T02:34:33;20.10;99.90
69418;DHT22;56610;48.872;2.400;2023-07-30T02:36:59;20.10;99.90
69418;DHT22;56610;48.872;2.400;2023-07-30T02:39:24;20.00;99.90
69418;DHT22;56610;48.872;2.400;2023-07-30T02:41:50;20.10;99.90
69418;DHT22;56610;48.872;2.400;2023-07-30T02:44:15;20.00;99.90
69418;DHT22;56610;48.872;2.400;2023-07-30T02:46:41;19.90;99.90
69418;DHT22;56610;48.872;2.400;2023-07-30T02:49:06;19.90;99.90
69418;DHT22;56610;48.872;2.400;2023-07-30T02:51:33;19.80;99.90
69418;DHT22;56610;48.872;2.400;2023-07-30T02:54:04;19.70;99.90
69418;DHT22;56610;48.872;2.400;2023-07-30T02:56:30;19.80;99.90
69418;DHT22;56610;48.872;2.400;2023-07-30T02:58:56;19.90;99.90
69418;DHT22;56610;48.872;2.400;2023-07-30T03:01:21;20.00;99.90
69418;DHT22;56610;48.872;2.400;2023-07-30T03:03:47;20.00;99.90
69418;DHT22;56610;48.872;2.400;2023-07-30T03:06:13;20.10;99.90
69418;DHT22;56610;48.872;2.400;2023-07-30T03:08:39;20.00;99.90
69418;DHT22;56610;48.872;2.400;2023-07-30T03:11:05;20.00;99.90
69418;DHT22;56610;48.872;2.400;2023-07-30T03:13:30;20.00;99.90
69418;DHT22;56610;48.872;2.400;2023-07-30T03:15:56;19.90;99.90
69418;DHT22;56610;48.872;2.400;2023-07-30T03:18:21;19.90;99.90
69418;DHT22;56610;48.872;2.400;2023-07-30T03:20:47;19.80;99.90
69418;DHT22;56610;48.872;2.400;2023-07-30T03:23:12;19.80;99.90
69418;DHT22;56610;48.872;2.400;2023-07-30T03:25:38;19.80;99.90
69418;DHT22;56610;48.872;2.400;2023-07-30T03:28:04;19.70;99.90
69418;DHT22;56610;48.872;2.400;2023-07-30T03:30:30;19.70;99.90
69418;DHT22;56610;48.872;2.400;2023-07-30T03:32:56;19.80;99.90
69418;DHT22;56610;48.872;2.400;2023-07-30T03:35:21;19.80;99.90
69418;DHT22;56610;48.872;2.400;2023-07-30T03:37:47;19.80;99.90
69418;DHT22;56610;48.872;2.400;2023-07-30T03:40:12;19.90;99.90
69418;DHT22;56610;48.872;2.400;2023-07-30T03:42:38;19.80;99.90
69418;DHT22;56610;48.872;2.400;2023-07-30T03:45:04;19.90;99.90
69418;DHT22;56610;48.872;2.400;2023-07-30T03:47:30;19.80;99.90
69418;DHT22;56610;48.872;2.400;2023-07-30T03:49:55;20.00;99.90
69418;DHT22;56610;48.872;2.400;2023-07-30T03:52:21;20.00;99.90
69418;DHT22;56610;48.872;2.400;2023-07-30T03:54:47;20.10;99.90
69418;DHT22;56610;48.872;2.400;2023-07-30T03:57:12;20.00;99.90
69418;DHT22;56610;48.872;2.400;2023-07-30T03:59:38;20.10;99.90
69418;DHT22;56610;48.872;2.400;2023-07-30T04:02:03;20.10;99.90
69418;DHT22;56610;48.872;2.400;2023-07-30T04:04:29;20.20;99.90
69418;DHT22;56610;48.872;2.400;2023-07-30T04:06:55;20.10;99.90
69418;DHT22;56610;48.872;2.400;2023-07-30T04:09:21;20.00;99.90
69418;DHT22;56610;48.872;2.400;2023-07-30T04:11:46;19.80;99.90
69418;DHT22;56610;48.872;2.400;2023-07-30T04:14:12;19.90;99.90
69418;DHT22;56610;48.872;2.400;2023-07-30T04:16:37;19.90;99.90
69418;DHT22;56610;48.872;2.400;2023-07-30T04:19:03;19.80;99.90
69418;DHT22;56610;48.872;2.400;2023-07-30T04:21:28;19.80;99.90
69418;DHT22;56610;48.872;2.400;2023-07-30T04:23:54;19.80;99.90
69418;DHT22;56610;48.872;2.400;2023-07-30T04:26:19;19.90;99.90
69418;DHT22;56610;48.872;2.400;2023-07-30T04:28:45;19.70;99.90
69418;DHT22;56610;48.872;2.400;2023-07-30T04:31:11;19.80;99.90
69418;DHT22;56610;48.872;2.400;2023-07-30T04:33:36;19.80;99.90
69418;DHT22;56610;48.872;2.400;2023-07-30T04:36:02;19.90;99.90
69418;DHT22;56610;48.872;2.400;2023-07-30T04:38:27;19.90;99.90
69418;DHT22;56610;48.872;2.400;2023-07-30T04:40:54;20.00;99.90
69418;DHT22;56610;48.872;2.400;2023-07-30T04:43:22;19.90;99.90
69418;DHT22;56610;48.872;2.400;2023-07-30T04:45:48;20.00;99.90
69418;DHT22;56610;48.872;2.400;2023-07-30T04:48:13;19.80;99.90
69418;DHT22;56610;48.872;2.400;2023-07-30T04:50:39;19.80;99.90
69418;DHT22;56610;48.872;2.400;2023-07-30T04:53:07;19.80;99.90
69418;DHT22;56610;48.872;2.400;2023-07-30T04:55:36;19.70;99.90
69418;DHT22;56610;48.872;2.400;2023-07-30T04:58:01;19.70;99.90
69418;DHT22;56610;48.872;2.400;2023-07-30T05:00:27;19.70;99.90
69418;DHT22;56610;48.872;2.400;2023-07-30T05:02:53;19.60;99.90
69418;DHT22;56610;48.872;2.400;2023-07-30T05:05:18;19.70;99.90
69418;DHT22;56610;48.872;2.400;2023-07-30T05:07:44;19.70;99.90
69418;DHT22;56610;48.872;2.400;2023-07-30T05:10:10;19.60;99.90
69418;DHT22;56610;48.872;2.400;2023-07-30T05:12:36;19.60;99.90
69418;DHT22;56610;48.872;2.400;2023-07-30T05:15:02;19.60;99.90
69418;DHT22;56610;48.872;2.400;2023-07-30T05:17:28;19.60;99.90
69418;DHT22;56610;48.872;2.400;2023-07-30T05:19:54;19.50;99.90
69418;DHT22;56610;48.872;2.400;2023-07-30T05:22:19;19.50;99.90
69418;DHT22;56610;48.872;2.400;2023-07-30T05:24:45;19.60;99.90
69418;DHT22;56610;48.872;2.400;2023-07-30T05:27:11;19.60;99.90
69418;DHT22;56610;48.872;2.400;2023-07-30T05:29:36;19.70;99.90
69418;DHT22;56610;48.872;2.400;2023-07-30T05:32:02;19.70;99.90
69418;DHT22;56610;48.872;2.400;2023-07-30T05:34:28;19.60;99.90
69418;DHT22;56610;48.872;2.400;2023-07-30T05:36:53;19.70;99.90
69418;DHT22;56610;48.872;2.400;2023-07-30T05:39:19;19.70;99.90
69418;DHT22;56610;48.872;2.400;2023-07-30T05:41:44;19.60;99.90
69418;DHT22;56610;48.872;2.400;2023-07-30T05:44:10;19.60;99.90
69418;DHT22;56610;48.872;2.400;2023-07-30T05:46:35;19.60;99.90
69418;DHT22;56610;48.872;2.400;2023-07-30T05:49:01;19.60;99.90
69418;DHT22;56610;48.872;2.400;2023-07-30T05:51:26;19.70;99.90
69418;DHT22;56610;48.872;2.400;2023-07-30T05:53:52;19.80;99.90
69418;DHT22;56610;48.872;2.400;2023-07-30T05:56:17;19.70;99.90
69418;DHT22;56610;48.872;2.400;2023-07-30T05:58:44;19.80;99.90
69418;DHT22;56610;48.872;2.400;2023-07-30T06:01:10;19.70;99.90
69418;DHT22;56610;48.872;2.400;2023-07-30T06:03:37;19.70;99.90
69418;DHT22;56610;48.872;2.400;2023-07-30T06:06:02;19.60;99.90
69418;DHT22;56610;48.872;2.400;2023-07-30T06:08:28;19.50;99.90
69418;DHT22;56610;48.872;2.400;2023-07-30T06:10:55;19.50;99.90
69418;DHT22;56610;48.872;2.400;2023-07-30T06:13:20;19.60;99.90
69418;DHT22;56610;48.872;2.400;2023-07-30T06:15:46;19.60;99.90
69418;DHT22;56610;48.872;2.400;2023-07-30T06:18:12;19.70;99.90
69418;DHT22;56610;48.872;2.400;2023-07-30T06:20:37;19.80;99.90
69418;DHT22;56610;48.872;2.400;2023-07-30T06:23:03;19.80;99.90
69418;DHT22;56610;48.872;2.400;2023-07-30T06:25:29;19.80;99.90
69418;DHT22;56610;48.872;2.400;2023-07-30T06:27:55;19.90;99.90
69418;DHT22;56610;48.872;2.400;2023-07-30T06:30:24;19.90;99.90
69418;DHT22;56610;48.872;2.400;2023-07-30T06:32:49;19.70;99.90
69418;DHT22;56610;48.872;2.400;2023-07-30T06:35:15;19.80;99.90
69418;DHT22;56610;48.872;2.400;2023-07-30T06:37:41;19.80;99.90
69418;DHT22;56610;48.872;2.400;2023-07-30T06:40:07;19.80;99.90
69418;DHT22;56610;48.872;2.400;2023-07-30T06:42:32;19.90;99.90
69418;DHT22;56610;48.872;2.400;2023-07-30T06:44:58;19.90;99.90
69418;DHT22;56610;48.872;2.400;2023-07-30T06:47:24;20.00;99.90
69418;DHT22;56610;48.872;2.400;2023-07-30T06:49:49;20.10;99.90
69418;DHT22;56610;48.872;2.400;2023-07-30T06:52:15;20.10;99.90
69418;DHT22;56610;48.872;2.400;2023-07-30T06:54:40;20.20;99.90
69418;DHT22;56610;48.872;2.400;2023-07-30T06:57:06;20.20;99.90
69418;DHT22;56610;48.872;2.400;2023-07-30T06:59:32;20.30;99.90
69418;DHT22;56610;48.872;2.400;2023-07-30T07:01:57;20.20;99.90
69418;DHT22;56610;48.872;2.400;2023-07-30T07:04:23;20.20;99.90
69418;DHT22;56610;48.872;2.400;2023-07-30T07:06:48;20.40;99.90
69418;DHT22;56610;48.872;2.400;2023-07-30T07:09:14;20.60;99.90
69418;DHT22;56610;48.872;2.400;2023-07-30T07:11:39;20.70;99.90
69418;DHT22;56610;48.872;2.400;2023-07-30T07:14:05;20.70;99.90
69418;DHT22;56610;48.872;2.400;2023-07-30T07:16:30;20.70;99.90
69418;DHT22;56610;48.872;2.400;2023-07-30T07:18:56;20.70;99.90
69418;DHT22;56610;48.872;2.400;2023-07-30T07:21:21;20.70;99.90
69418;DHT22;56610;48.872;2.400;2023-07-30T07:23:47;20.80;99.90
69418;DHT22;56610;48.872;2.400;2023-07-30T07:26:12;20.80;99.90
69418;DHT22;56610;48.872;2.400;2023-07-30T07:28:38;20.70;99.90
69418;DHT22;56610;48.872;2.400;2023-07-30T07:31:03;20.70;99.90
69418;DHT22;56610;48.872;2.400;2023-07-30T07:33:29;20.80;99.90
69418;DHT22;56610;48.872;2.400;2023-07-30T07:36:06;20.90;99.90
69418;DHT22;56610;48.872;2.400;2023-07-30T07:38:32;21.00;99.90
69418;DHT22;56610;48.872;2.400;2023-07-30T07:40:59;21.10;99.90
69418;DHT22;56610;48.872;2.400;2023-07-30T07:43:24;21.20;99.90
69418;DHT22;56610;48.872;2.400;2023-07-30T07:45:50;21.20;99.90
69418;DHT22;56610;48.872;2.400;2023-07-30T07:48:15;21.10;99.90
69418;DHT22;56610;48.872;2.400;2023-07-30T07:50:41;21.10;99.90
69418;DHT22;56610;48.872;2.400;2023-07-30T07:53:06;21.10;99.90
69418;DHT22;56610;48.872;2.400;2023-07-30T07:55:32;21.00;99.90
69418;DHT22;56610;48.872;2.400;2023-07-30T07:57:58;21.10;99.90
69418;DHT22;56610;48.872;2.400;2023-07-30T08:00:23;21.10;99.90
69418;DHT22;56610;48.872;2.400;2023-07-30T08:02:49;21.00;99.90
69418;DHT22;56610;48.872;2.400;2023-07-30T08:05:15;21.10;99.90
69418;DHT22;56610;48.872;2.400;2023-07-30T08:07:41;21.20;99.90
69418;DHT22;56610;48.872;2.400;2023-07-30T08:10:07;21.10;99.90
69418;DHT22;56610;48.872;2.400;2023-07-30T08:12:33;21.10;99.90
69418;DHT22;56610;48.872;2.400;2023-07-30T08:14:58;21.20;99.90
69418;DHT22;56610;48.872;2.400;2023-07-30T08:17:24;21.20;99.90
69418;DHT22;56610;48.872;2.400;2023-07-30T08:19:50;21.20;99.90
69418;DHT22;56610;48.872;2.400;2023-07-30T08:22:16;21.30;99.90
69418;DHT22;56610;48.872;2.400;2023-07-30T08:24:41;21.30;99.90
69418;DHT22;56610;48.872;2.400;2023-07-30T08:27:07;21.30;99.90
69418;DHT22;56610;48.872;2.400;2023-07-30T08:29:32;21.30;99.90
69418;DHT22;56610;48.872;2.400;2023-07-30T08:31:59;21.40;99.90
69418;DHT22;56610;48.872;2.400;2023-07-30T08:34:25;21.40;99.90
69418;DHT22;56610;48.872;2.400;2023-07-30T08:36:50;21.40;99.90
69418;DHT22;56610;48.872;2.400;2023-07-30T08:39:16;21.40;99.90
69418;DHT22;56610;48.872;2.400;2023-07-30T08:41:42;21.40;99.90
69418;DHT22;56610;48.872;2.400;2023-07-30T08:44:09;21.40;99.90
69418;DHT22;56610;48.872;2.400;2023-07-30T08:46:34;21.30;99.90
69418;DHT22;56610;48.872;2.400;2023-07-30T08:49:00;21.30;99.90
69418;DHT22;56610;48.872;2.400;2023-07-30T08:51:26;21.40;99.90
69418;DHT22;56610;48.872;2.400;2023-07-30T08:53:53;21.50;99.90
69418;DHT22;56610;48.872;2.400;2023-07-30T08:56:19;21.40;99.90
69418;DHT22;56610;48.872;2.400;2023-07-30T08:58:46;21.50;99.90
69418;DHT22;56610;48.872;2.400;2023-07-30T09:01:12;21.60;99.90
69418;DHT22;56610;48.872;2.400;2023-07-30T09:03:39;21.60;99.90
69418;DHT22;56610;48.872;2.400;2023-07-30T09:06:06;21.60;99.90
69418;DHT22;56610;48.872;2.400;2023-07-30T09:08:31;21.70;99.90
69418;DHT22;56610;48.872;2.400;2023-07-30T09:11:07;21.80;99.90
69418;DHT22;56610;48.872;2.400;2023-07-30T09:13:37;21.80;99.90
69418;DHT22;56610;48.872;2.400;2023-07-30T09:16:11;21.90;99.90
69418;DHT22;56610;48.872;2.400;2023-07-30T09:18:45;21.90;99.90
69418;DHT22;56610;48.872;2.400;2023-07-30T09:21:12;21.90;99.90
69418;DHT22;56610;48.872;2.400;2023-07-30T09:23:42;22.00;99.90
69418;DHT22;56610;48.872;2.400;2023-07-30T09:26:08;22.10;99.90
69418;DHT22;56610;48.872;2.400;2023-07-30T09:28:34;22.30;99.90
69418;DHT22;56610;48.872;2.400;2023-07-30T09:31:04;22.20;99.90
69418;DHT22;56610;48.872;2.400;2023-07-30T09:33:31;22.20;99.90
69418;DHT22;56610;48.872;2.400;2023-07-30T09:35:57;22.20;99.90
69418;DHT22;56610;48.872;2.400;2023-07-30T09:38:23;22.20;99.90
69418;DHT22;56610;48.872;2.400;2023-07-30T09:40:51;22.30;99.90
69418;DHT22;56610;48.872;2.400;2023-07-30T09:43:18;22.40;99.90
69418;DHT22;56610;48.872;2.400;2023-07-30T09:45:45;22.40;99.90
69418;DHT22;56610;48.872;2.400;2023-07-30T09:48:12;22.40;99.90
69418;DHT22;56610;48.872;2.400;2023-07-30T09:50:39;22.40;99.90
69418;DHT22;56610;48.872;2.400;2023-07-30T09:53:05;22.50;99.90
69418;DHT22;56610;48.872;2.400;2023-07-30T09:55:31;22.50;99.90
69418;DHT22;56610;48.872;2.400;2023-07-30T09:57:56;22.60;99.90
69418;DHT22;56610;48.872;2.400;2023-07-30T10:00:22;22.60;99.90
69418;DHT22;56610;48.872;2.400;2023-07-30T10:02:49;22.50;99.90
69418;DHT22;56610;48.872;2.400;2023-07-30T10:05:19;22.60;99.90
69418;DHT22;56610;48.872;2.400;2023-07-30T10:08:00;22.60;99.90
69418;DHT22;56610;48.872;2.400;2023-07-30T10:10:28;22.70;99.90
69418;DHT22;56610;48.872;2.400;2023-07-30T10:12:56;22.60;99.90
69418;DHT22;56610;48.872;2.400;2023-07-30T10:15:23;22.70;99.90
69418;DHT22;56610;48.872;2.400;2023-07-30T10:17:51;22.80;99.90
69418;DHT22;56610;48.872;2.400;2023-07-30T10:20:25;22.70;99.90
69418;DHT22;56610;48.872;2.400;2023-07-30T10:22:55;22.60;99.90
69418;DHT22;56610;48.872;2.400;2023-07-30T10:25:27;22.60;99.90
69418;DHT22;56610;48.872;2.400;2023-07-30T10:27:53;22.70;99.90
69418;DHT22;56610;48.872;2.400;2023-07-30T10:30:20;22.70;99.90
69418;DHT22;56610;48.872;2.400;2023-07-30T10:35:42;22.70;99.90
69418;DHT22;56610;48.872;2.400;2023-07-30T10:38:30;22.90;99.90
69418;DHT22;56610;48.872;2.400;2023-07-30T10:41:07;23.10;99.90
69418;DHT22;56610;48.872;2.400;2023-07-30T10:43:41;23.10;99.90
69418;DHT22;56610;48.872;2.400;2023-07-30T10:46:09;23.20;99.90
69418;DHT22;56610;48.872;2.400;2023-07-30T10:48:36;23.20;99.90
69418;DHT22;56610;48.872;2.400;2023-07-30T10:51:05;23.10;99.90
69418;DHT22;56610;48.872;2.400;2023-07-30T10:53:31;23.10;99.90
69418;DHT22;56610;48.872;2.400;2023-07-30T10:56:00;23.10;99.90
69418;DHT22;56610;48.872;2.400;2023-07-30T10:58:28;23.20;99.90
69418;DHT22;56610;48.872;2.400;2023-07-30T11:00:55;23.30;99.90
69418;DHT22;56610;48.872;2.400;2023-07-30T11:03:24;23.40;99.90
69418;DHT22;56610;48.872;2.400;2023-07-30T11:05:51;23.40;99.90
69418;DHT22;56610;48.872;2.400;2023-07-30T11:08:17;23.50;99.90
69418;DHT22;56610;48.872;2.400;2023-07-30T11:10:46;23.50;99.90
69418;DHT22;56610;48.872;2.400;2023-07-30T11:13:14;23.50;99.90
69418;DHT22;56610;48.872;2.400;2023-07-30T11:15:44;23.60;99.90
69418;DHT22;56610;48.872;2.400;2023-07-30T11:18:11;23.70;99.90
69418;DHT22;56610;48.872;2.400;2023-07-30T11:20:37;23.90;99.90
69418;DHT22;56610;48.872;2.400;2023-07-30T11:23:25;24.10;99.90
69418;DHT22;56610;48.872;2.400;2023-07-30T11:25:51;24.30;99.90
69418;DHT22;56610;48.872;2.400;2023-07-30T11:28:31;24.50;99.90
69418;DHT22;56610;48.872;2.400;2023-07-30T11:33:33;24.90;99.90
69418;DHT22;56610;48.872;2.400;2023-07-30T11:36:00;25.30;99.90
69418;DHT22;56610;48.872;2.400;2023-07-30T11:38:27;25.40;99.90
69418;DHT22;56610;48.872;2.400;2023-07-30T11:40:53;25.50;99.90
69418;DHT22;56610;48.872;2.400;2023-07-30T11:43:20;25.50;99.90
69418;DHT22;56610;48.872;2.400;2023-07-30T11:45:49;25.70;99.90
69418;DHT22;56610;48.872;2.400;2023-07-30T11:48:30;25.70;98.90
69418;DHT22;56610;48.872;2.400;2023-07-30T11:50:56;25.70;98.70
69418;DHT22;56610;48.872;2.400;2023-07-30T11:53:21;25.70;99.50
69418;DHT22;56610;48.872;2.400;2023-07-30T11:55:47;25.60;99.80
69418;DHT22;56610;48.872;2.400;2023-07-30T11:58:13;25.30;99.00
69418;DHT22;56610;48.872;2.400;2023-07-30T12:00:43;25.20;98.40
69418;DHT22;56610;48.872;2.400;2023-07-30T12:03:14;25.30;98.80
69418;DHT22;56610;48.872;2.400;2023-07-30T12:05:39;25.30;99.20
69418;DHT22;56610;48.872;2.400;2023-07-30T12:08:07;25.10;99.20
69418;DHT22;56610;48.872;2.400;2023-07-30T12:13:16;25.30;99.20
69418;DHT22;56610;48.872;2.400;2023-07-30T12:15:52;25.40;98.50
69418;DHT22;56610;48.872;2.400;2023-07-30T12:18:19;25.40;98.30
69418;DHT22;56610;48.872;2.400;2023-07-30T12:20:45;25.50;98.20
69418;DHT22;56610;48.872;2.400;2023-07-30T12:23:11;25.30;98.00
69418;DHT22;56610;48.872;2.400;2023-07-30T12:25:37;25.50;98.00
69418;DHT22;56610;48.872;2.400;2023-07-30T12:28:03;25.60;98.40
69418;DHT22;56610;48.872;2.400;2023-07-30T12:30:29;25.70;97.80
69418;DHT22;56610;48.872;2.400;2023-07-30T12:32:55;25.50;98.20
69418;DHT22;56610;48.872;2.400;2023-07-30T12:35:20;25.50;99.20
69418;DHT22;56610;48.872;2.400;2023-07-30T12:37:46;25.60;98.00
69418;DHT22;56610;48.872;2.400;2023-07-30T12:40:11;25.80;98.70
69418;DHT22;56610;48.872;2.400;2023-07-30T12:42:37;25.90;98.70
69418;DHT22;56610;48.872;2.400;2023-07-30T12:45:03;26.20;97.70
69418;DHT22;56610;48.872;2.400;2023-07-30T12:47:28;26.30;96.90
69418;DHT22;56610;48.872;2.400;2023-07-30T12:49:54;26.40;97.60
69418;DHT22;56610;48.872;2.400;2023-07-30T12:52:20;26.50;97.10
69418;DHT22;56610;48.872;2.400;2023-07-30T12:54:45;26.50;96.80
69418;DHT22;56610;48.872;2.400;2023-07-30T12:57:11;26.40;96.80
69418;DHT22;56610;48.872;2.400;2023-07-30T12:59:37;26.60;97.50
69418;DHT22;56610;48.872;2.400;2023-07-30T13:02:02;26.70;96.40
69418;DHT22;56610;48.872;2.400;2023-07-30T13:04:28;26.70;96.40
69418;DHT22;56610;48.872;2.400;2023-07-30T13:06:54;26.70;95.70
69418;DHT22;56610;48.872;2.400;2023-07-30T13:09:20;26.90;96.40
69418;DHT22;56610;48.872;2.400;2023-07-30T13:11:45;26.90;96.50
69418;DHT22;56610;48.872;2.400;2023-07-30T13:14:11;27.00;95.50
69418;DHT22;56610;48.872;2.400;2023-07-30T13:16:37;27.10;95.90
69418;DHT22;56610;48.872;2.400;2023-07-30T13:19:02;27.10;95.50
69418;DHT22;56610;48.872;2.400;2023-07-30T13:21:28;27.20;95.50
69418;DHT22;56610;48.872;2.400;2023-07-30T13:23:53;27.30;94.70
69418;DHT22;56610;48.872;2.400;2023-07-30T13:26:19;27.30;95.30
69418;DHT22;56610;48.872;2.400;2023-07-30T13:28:44;27.50;94.00
69418;DHT22;56610;48.872;2.400;2023-07-30T13:31:10;27.50;94.90
69418;DHT22;56610;48.872;2.400;2023-07-30T13:33:36;27.40;94.00
69418;DHT22;56610;48.872;2.400;2023-07-30T13:36:02;27.30;94.40
69418;DHT22;56610;48.872;2.400;2023-07-30T13:38:28;27.20;94.90
69418;DHT22;56610;48.872;2.400;2023-07-30T13:40:54;27.30;94.70
69418;DHT22;56610;48.872;2.400;2023-07-30T13:43:19;27.30;94.10
69418;DHT22;56610;48.872;2.400;2023-07-30T13:45:45;27.30;93.40
69418;DHT22;56610;48.872;2.400;2023-07-30T13:48:15;27.60;93.70
69418;DHT22;56610;48.872;2.400;2023-07-30T13:50:41;27.70;94.70
69418;DHT22;56610;48.872;2.400;2023-07-30T13:53:07;27.80;94.00
69418;DHT22;56610;48.872;2.400;2023-07-30T13:55:32;27.80;93.50
69418;DHT22;56610;48.872;2.400;2023-07-30T13:57:58;27.60;94.00
69418;DHT22;56610;48.872;2.400;2023-07-30T14:00:24;27.80;94.50
69418;DHT22;56610;48.872;2.400;2023-07-30T14:02:49;27.90;94.00
69418;DHT22;56610;48.872;2.400;2023-07-30T14:05:16;28.00;94.40
69418;DHT22;56610;48.872;2.400;2023-07-30T14:07:42;28.10;93.90
69418;DHT22;56610;48.872;2.400;2023-07-30T14:10:08;28.30;93.80
69418;DHT22;56610;48.872;2.400;2023-07-30T14:12:34;28.50;93.60
69418;DHT22;56610;48.872;2.400;2023-07-30T14:15:00;28.50;93.70
69418;DHT22;56610;48.872;2.400;2023-07-30T14:17:26;28.60;93.20
69418;DHT22;56610;48.872;2.400;2023-07-30T14:19:52;28.60;93.90
69418;DHT22;56610;48.872;2.400;2023-07-30T14:22:17;28.50;92.40
69418;DHT22;56610;48.872;2.400;2023-07-30T14:24:43;28.20;92.70
69418;DHT22;56610;48.872;2.400;2023-07-30T14:27:10;28.10;93.10
69418;DHT22;56610;48.872;2.400;2023-07-30T14:29:36;27.90;93.00
69418;DHT22;56610;48.872;2.400;2023-07-30T14:32:01;27.80;93.70
69418;DHT22;56610;48.872;2.400;2023-07-30T14:34:27;27.70;93.40
69418;DHT22;56610;48.872;2.400;2023-07-30T14:36:52;27.60;94.00
69418;DHT22;56610;48.872;2.400;2023-07-30T14:39:18;27.30;93.10
69418;DHT22;56610;48.872;2.400;2023-07-30T14:41:43;27.40;94.10
69418;DHT22;56610;48.872;2.400;2023-07-30T14:44:09;27.40;94.40
69418;DHT22;56610;48.872;2.400;2023-07-30T14:46:34;27.20;93.70
69418;DHT22;56610;48.872;2.400;2023-07-30T14:49:00;27.20;94.20
69418;DHT22;56610;48.872;2.400;2023-07-30T14:51:26;27.20;93.90
69418;DHT22;56610;48.872;2.400;2023-07-30T14:53:51;27.00;94.00
69418;DHT22;56610;48.872;2.400;2023-07-30T14:56:17;26.80;94.50
69418;DHT22;56610;48.872;2.400;2023-07-30T14:58:42;26.70;94.00
69418;DHT22;56610;48.872;2.400;2023-07-30T15:01:08;26.70;94.80
69418;DHT22;56610;48.872;2.400;2023-07-30T15:03:33;26.50;94.60
69418;DHT22;56610;48.872;2.400;2023-07-30T15:05:59;26.50;95.20
69418;DHT22;56610;48.872;2.400;2023-07-30T15:08:25;26.40;95.00
69418;DHT22;56610;48.872;2.400;2023-07-30T15:10:51;26.60;95.40
69418;DHT22;56610;48.872;2.400;2023-07-30T15:13:16;26.70;96.10
69418;DHT22;56610;48.872;2.400;2023-07-30T15:15:43;26.60;94.60
69418;DHT22;56610;48.872;2.400;2023-07-30T15:18:09;26.70;94.60
69418;DHT22;56610;48.872;2.400;2023-07-30T15:20:35;26.50;95.20
69418;DHT22;56610;48.872;2.400;2023-07-30T15:23:02;26.50;95.70
69418;DHT22;56610;48.872;2.400;2023-07-30T15:25:27;26.40;96.20
69418;DHT22;56610;48.872;2.400;2023-07-30T15:27:53;26.30;95.50
69418;DHT22;56610;48.872;2.400;2023-07-30T15:30:19;26.20;95.50
69418;DHT22;56610;48.872;2.400;2023-07-30T15:32:44;26.00;95.70